createdAt,value
2022-12-31T00:01:44.603Z,2.00
2022-12-31T00:04:10.950Z,2.45
2022-12-31T00:06:37.341Z,2.38
2022-12-31T00:09:05.098Z,2.17
2022-12-31T00:11:31.942Z,2.70
2022-12-31T00:13:58.691Z,2.60
2022-12-31T00:16:26.851Z,2.80
2022-12-31T00:18:54.591Z,2.97
2022-12-31T00:21:21.559Z,2.95
2022-12-31T00:23:48.074Z,3.33
2022-12-31T00:26:15.837Z,2.78
2022-12-31T00:28:42.577Z,3.33
2022-12-31T00:31:13.340Z,3.80
2022-12-31T00:33:40.005Z,3.75
2022-12-31T00:36:12.194Z,3.95
2022-12-31T00:38:39.419Z,3.60
2022-12-31T00:41:06.482Z,4.07
2022-12-31T00:43:33.535Z,4.45
2022-12-31T00:46:00.062Z,4.35
2022-12-31T00:48:26.663Z,3.47
2022-12-31T00:50:53.506Z,3.70
2022-12-31T00:53:19.982Z,3.75
2022-12-31T00:55:46.444Z,3.70
2022-12-31T00:58:12.997Z,3.20
2022-12-31T01:00:39.572Z,3.40
2022-12-31T01:03:06.573Z,3.38
2022-12-31T01:05:33.584Z,3.35
2022-12-31T01:08:00.039Z,3.28
2022-12-31T01:10:44.806Z,2.90
2022-12-31T01:13:12.287Z,2.20
2022-12-31T01:15:38.956Z,2.50
2022-12-31T01:18:06.707Z,2.10
2022-12-31T01:20:37.708Z,1.90
2022-12-31T01:23:04.199Z,2.30
2022-12-31T01:25:30.537Z,1.90
2022-12-31T01:27:56.872Z,2.50
2022-12-31T01:30:23.201Z,2.17
2022-12-31T01:32:51.113Z,2.05
2022-12-31T01:35:17.425Z,1.95
2022-12-31T01:37:44.403Z,1.73
2022-12-31T01:40:10.958Z,1.85
2022-12-31T01:42:37.272Z,2.00
2022-12-31T01:45:03.863Z,2.13
2022-12-31T01:47:35.824Z,1.70
2022-12-31T01:50:04.810Z,1.83
2022-12-31T01:52:32.964Z,1.70
2022-12-31T01:55:05.188Z,2.08
2022-12-31T01:57:31.688Z,1.58
2022-12-31T01:59:58.717Z,1.60
2022-12-31T02:02:25.127Z,1.90
2022-12-31T02:04:52.847Z,1.70
2022-12-31T02:07:19.333Z,2.47
2022-12-31T02:09:45.755Z,2.00
2022-12-31T02:12:12.163Z,1.58
2022-12-31T02:14:41.809Z,1.80
2022-12-31T02:17:12.872Z,1.90
2022-12-31T02:19:44.984Z,2.35
2022-12-31T02:22:14.458Z,2.65
2022-12-31T02:24:59.683Z,7.55
2022-12-31T02:27:26.029Z,38.35
2022-12-31T02:30:12.864Z,3.55
2022-12-31T02:32:48.903Z,2.30
2022-12-31T02:35:18.523Z,3.05
2022-12-31T02:37:47.850Z,2.45
2022-12-31T02:40:17.372Z,3.15
2022-12-31T02:42:43.683Z,3.70
2022-12-31T02:45:12.245Z,3.17
2022-12-31T02:47:50.063Z,3.38
2022-12-31T02:50:19.384Z,3.17
2022-12-31T02:52:45.719Z,3.65
2022-12-31T02:55:30.371Z,3.38
2022-12-31T02:58:13.453Z,2.70
2022-12-31T03:01:07.666Z,2.55
2022-12-31T03:03:34.701Z,2.78
2022-12-31T03:06:03.070Z,1.90
2022-12-31T03:08:29.469Z,2.45
2022-12-31T03:10:57.015Z,2.20
2022-12-31T03:13:23.848Z,1.85
2022-12-31T03:15:50.251Z,2.45
2022-12-31T03:18:17.660Z,1.65
2022-12-31T03:21:04.105Z,1.92
2022-12-31T03:23:38.468Z,1.65
2022-12-31T03:26:11.570Z,2.10
2022-12-31T03:28:39.635Z,1.83
2022-12-31T03:31:06.265Z,1.80
2022-12-31T03:33:33.737Z,1.75
2022-12-31T03:36:02.758Z,1.88
2022-12-31T03:38:29.066Z,1.80
2022-12-31T03:40:55.848Z,1.80
2022-12-31T03:43:22.237Z,1.73
2022-12-31T03:45:52.262Z,1.65
2022-12-31T03:48:18.941Z,1.77
2022-12-31T03:50:45.412Z,2.10
2022-12-31T03:53:11.787Z,1.77
2022-12-31T03:55:38.173Z,2.08
2022-12-31T03:58:04.662Z,2.17
2022-12-31T04:00:31.061Z,1.73
2022-12-31T04:02:57.458Z,1.67
2022-12-31T04:05:24.356Z,1.80
2022-12-31T04:07:52.152Z,1.50
2022-12-31T04:10:19.530Z,1.20
2022-12-31T04:12:46.149Z,1.70
2022-12-31T04:15:17.329Z,1.70
2022-12-31T04:17:43.733Z,1.40
2022-12-31T04:20:10.507Z,1.33
2022-12-31T04:22:37.120Z,1.73
2022-12-31T04:25:04.007Z,1.52
2022-12-31T04:27:30.411Z,1.40
2022-12-31T04:29:56.813Z,1.38
2022-12-31T04:32:23.646Z,1.13
2022-12-31T04:34:49.955Z,1.67
2022-12-31T04:37:16.378Z,1.75
2022-12-31T04:39:42.753Z,1.80
2022-12-31T04:42:09.081Z,2.13
2022-12-31T04:44:35.547Z,1.83
2022-12-31T04:47:02.156Z,1.90
2022-12-31T04:49:28.496Z,2.60
2022-12-31T04:51:54.816Z,2.63
2022-12-31T04:54:21.289Z,2.70
2022-12-31T04:56:47.591Z,2.80
2022-12-31T04:59:13.897Z,3.20
2022-12-31T05:01:40.272Z,3.50
2022-12-31T05:04:06.703Z,3.83
2022-12-31T05:06:33.149Z,4.20
2022-12-31T05:09:00.908Z,4.93
2022-12-31T05:11:27.271Z,4.43
2022-12-31T05:13:53.596Z,4.75
2022-12-31T05:16:19.981Z,4.45
2022-12-31T05:18:46.328Z,6.15
2022-12-31T05:21:17.660Z,6.15
2022-12-31T05:23:44.012Z,5.55
2022-12-31T05:26:10.409Z,4.93
2022-12-31T05:28:36.770Z,4.95
2022-12-31T05:31:03.205Z,5.70
2022-12-31T05:33:29.601Z,4.20
2022-12-31T05:35:58.257Z,3.70
2022-12-31T05:38:25.353Z,3.70
2022-12-31T05:41:01.520Z,3.17
2022-12-31T05:43:27.991Z,3.25
2022-12-31T05:45:54.426Z,2.80
2022-12-31T05:48:21.055Z,3.10
2022-12-31T05:50:48.233Z,3.45
2022-12-31T05:53:14.532Z,3.05
2022-12-31T05:55:40.841Z,3.25
2022-12-31T05:58:07.199Z,3.03
2022-12-31T06:00:33.596Z,3.42
2022-12-31T06:03:00.023Z,3.38
2022-12-31T06:05:26.820Z,3.20
2022-12-31T06:07:53.260Z,3.67
2022-12-31T06:10:19.631Z,3.85
2022-12-31T06:12:46.000Z,3.08
2022-12-31T06:15:12.356Z,3.13
2022-12-31T06:17:38.707Z,2.67
2022-12-31T06:20:12.229Z,2.67
2022-12-31T06:22:39.300Z,2.30
2022-12-31T06:25:05.929Z,2.83
2022-12-31T06:27:32.259Z,3.08
2022-12-31T06:29:58.544Z,2.65
2022-12-31T06:32:24.856Z,2.97
2022-12-31T06:34:51.212Z,3.30
2022-12-31T06:37:17.579Z,3.80
2022-12-31T06:39:43.942Z,4.05
2022-12-31T06:42:10.236Z,5.00
2022-12-31T06:44:37.599Z,4.93
2022-12-31T06:47:03.984Z,5.50
2022-12-31T06:49:30.355Z,5.63
2022-12-31T06:51:56.769Z,6.20
2022-12-31T06:54:23.205Z,6.32
2022-12-31T06:56:49.853Z,5.85
2022-12-31T06:59:24.262Z,6.03
2022-12-31T07:01:59.894Z,5.72
2022-12-31T07:04:26.304Z,6.75
2022-12-31T07:06:56.720Z,6.53
2022-12-31T07:09:29.188Z,5.97
2022-12-31T07:12:01.672Z,4.45
2022-12-31T07:14:27.996Z,4.30
2022-12-31T07:17:13.104Z,3.13
2022-12-31T07:19:58.063Z,2.70
2022-12-31T07:22:24.607Z,2.13
2022-12-31T07:24:51.183Z,2.10
2022-12-31T07:27:30.363Z,2.00
2022-12-31T07:30:07.326Z,1.48
2022-12-31T07:33:01.302Z,1.42
2022-12-31T07:35:36.571Z,1.30
2022-12-31T07:38:05.733Z,1.35
2022-12-31T07:40:32.020Z,0.75
2022-12-31T07:43:01.081Z,0.77
2022-12-31T07:45:33.608Z,0.77
2022-12-31T07:48:02.840Z,0.73
2022-12-31T07:50:29.635Z,0.80
2022-12-31T07:52:56.225Z,0.60
2022-12-31T07:55:22.565Z,0.77
2022-12-31T07:57:55.426Z,0.70
2022-12-31T08:00:21.937Z,0.70
2022-12-31T08:02:56.922Z,0.80
2022-12-31T08:05:36.698Z,0.77
2022-12-31T08:08:23.424Z,0.60
2022-12-31T08:10:49.742Z,0.80
2022-12-31T08:13:16.651Z,0.73
2022-12-31T08:15:43.176Z,0.82
2022-12-31T08:18:09.968Z,0.80
2022-12-31T08:20:42.617Z,0.70
2022-12-31T08:25:40.447Z,0.82
2022-12-31T08:28:12.626Z,0.82
2022-12-31T08:30:42.923Z,0.85
2022-12-31T08:33:24.459Z,0.93
2022-12-31T08:36:05.152Z,0.90
2022-12-31T08:38:34.334Z,1.00
2022-12-31T08:41:00.698Z,1.33
2022-12-31T08:43:30.092Z,1.13
2022-12-31T08:45:57.676Z,0.88
2022-12-31T08:48:36.898Z,0.80
2022-12-31T08:51:03.616Z,0.75
2022-12-31T08:53:30.063Z,0.85
2022-12-31T08:56:00.691Z,1.00
2022-12-31T08:58:29.884Z,1.13
2022-12-31T09:00:57.889Z,1.00
2022-12-31T09:03:33.262Z,1.10
2022-12-31T09:06:10.337Z,1.20
2022-12-31T09:08:36.738Z,1.10
2022-12-31T09:11:23.405Z,1.20
2022-12-31T09:14:02.847Z,0.98
2022-12-31T09:16:36.493Z,1.30
2022-12-31T09:19:02.873Z,1.30
2022-12-31T09:21:29.339Z,1.35
2022-12-31T09:23:55.770Z,1.70
2022-12-31T09:26:42.502Z,1.85
2022-12-31T09:29:23.206Z,1.60
2022-12-31T09:31:53.937Z,1.38
2022-12-31T09:34:35.629Z,2.80
2022-12-31T09:37:06.784Z,1.42
2022-12-31T09:39:40.999Z,1.35
2022-12-31T09:44:54.119Z,1.63
2022-12-31T09:47:39.178Z,1.70
2022-12-31T09:50:18.084Z,1.88
2022-12-31T09:52:47.786Z,1.27
2022-12-31T09:55:33.144Z,1.35
2022-12-31T09:58:11.587Z,1.58
2022-12-31T10:00:43.522Z,1.60
2022-12-31T10:03:18.724Z,1.50
2022-12-31T10:05:57.097Z,1.80
2022-12-31T10:08:29.481Z,1.48
2022-12-31T10:11:26.972Z,1.48
2022-12-31T10:14:02.177Z,1.40
2022-12-31T10:16:34.430Z,1.40
2022-12-31T10:19:04.223Z,1.48
2022-12-31T10:21:44.077Z,1.40
2022-12-31T10:24:28.351Z,1.70
2022-12-31T10:26:54.690Z,1.52
2022-12-31T10:29:25.480Z,1.70
2022-12-31T10:31:59.966Z,1.58
2022-12-31T10:34:31.568Z,1.55
2022-12-31T10:37:01.234Z,1.67
2022-12-31T10:39:30.335Z,2.03
2022-12-31T10:42:12.599Z,1.45
2022-12-31T10:44:44.736Z,1.50
2022-12-31T10:47:29.713Z,1.63
2022-12-31T10:50:03.030Z,1.58
2022-12-31T10:52:29.378Z,1.23
2022-12-31T10:55:01.665Z,1.63
2022-12-31T10:57:27.963Z,1.65
2022-12-31T11:00:20.646Z,1.50
2022-12-31T11:03:05.934Z,1.42
2022-12-31T11:05:41.067Z,2.13
2022-12-31T11:08:10.231Z,1.73
2022-12-31T11:10:36.628Z,1.80
2022-12-31T11:13:18.107Z,2.90
2022-12-31T11:15:50.673Z,1.85
2022-12-31T11:21:06.804Z,2.08
2022-12-31T11:23:55.252Z,2.30
2022-12-31T11:26:21.636Z,2.30
2022-12-31T11:29:00.590Z,2.65
2022-12-31T11:31:32.779Z,2.58
2022-12-31T11:34:10.493Z,3.00
2022-12-31T11:37:03.251Z,3.83
2022-12-31T11:39:31.403Z,3.20
2022-12-31T11:42:03.873Z,3.25
2022-12-31T11:44:48.795Z,5.05
2022-12-31T11:47:33.653Z,3.15
2022-12-31T11:49:59.982Z,3.28
2022-12-31T11:52:58.515Z,3.20
2022-12-31T11:55:34.870Z,2.60
2022-12-31T11:58:15.768Z,3.55
2022-12-31T12:00:48.970Z,2.80
2022-12-31T12:03:15.328Z,2.78
2022-12-31T12:05:41.723Z,3.17
2022-12-31T12:08:08.078Z,2.13
2022-12-31T12:10:37.872Z,2.40
2022-12-31T12:13:18.720Z,2.47
2022-12-31T12:15:47.569Z,1.88
2022-12-31T12:18:22.815Z,2.03
2022-12-31T12:20:49.145Z,2.28
2022-12-31T12:23:26.876Z,2.00
2022-12-31T12:25:53.246Z,2.00
2022-12-31T12:28:23.408Z,2.22
2022-12-31T12:30:57.901Z,1.90
2022-12-31T12:33:24.472Z,2.30
2022-12-31T12:35:51.153Z,2.10
2022-12-31T12:38:18.883Z,2.10
2022-12-31T12:41:14.465Z,4.10
2022-12-31T12:43:40.833Z,1.77
2022-12-31T12:46:22.880Z,2.00
2022-12-31T12:48:53.539Z,2.63
2022-12-31T12:51:19.862Z,1.90
2022-12-31T12:53:48.942Z,2.25
2022-12-31T12:56:36.937Z,2.38
2022-12-31T12:59:12.501Z,2.50
2022-12-31T13:01:46.774Z,2.55
2022-12-31T13:07:21.428Z,2.53
2022-12-31T13:09:47.747Z,2.35
2022-12-31T13:12:22.012Z,2.75
2022-12-31T13:15:12.679Z,2.28
2022-12-31T13:17:51.435Z,2.38
2022-12-31T13:20:35.210Z,2.25
2022-12-31T13:23:18.044Z,2.20
2022-12-31T13:25:44.373Z,2.88
2022-12-31T13:28:11.941Z,2.08
2022-12-31T13:30:40.461Z,2.85
2022-12-31T13:33:12.913Z,2.20
2022-12-31T13:38:10.232Z,2.20
2022-12-31T13:40:55.065Z,2.60
2022-12-31T13:43:35.173Z,2.50
2022-12-31T13:46:16.453Z,2.72
2022-12-31T13:48:50.755Z,3.47
2022-12-31T13:51:42.740Z,2.90
2022-12-31T13:54:20.075Z,2.67
2022-12-31T13:56:48.250Z,3.42
2022-12-31T13:59:20.653Z,2.97
2022-12-31T14:01:56.073Z,2.50
2022-12-31T14:04:28.187Z,2.47
2022-12-31T14:07:03.050Z,2.53
2022-12-31T14:09:31.244Z,2.25
2022-12-31T14:12:03.719Z,2.45
2022-12-31T14:17:05.986Z,2.42
2022-12-31T14:19:41.036Z,2.55
2022-12-31T14:22:21.560Z,2.60
2022-12-31T14:24:50.570Z,2.42
2022-12-31T14:27:22.063Z,2.60
2022-12-31T14:29:51.353Z,2.60
2022-12-31T14:32:36.635Z,3.13
2022-12-31T14:35:18.015Z,2.47
2022-12-31T14:37:58.167Z,3.90
2022-12-31T14:40:30.480Z,2.60
2022-12-31T14:43:15.431Z,2.85
2022-12-31T14:45:41.842Z,2.65
2022-12-31T14:48:11.007Z,2.78
2022-12-31T14:50:38.423Z,3.22
2022-12-31T14:53:06.244Z,2.60
2022-12-31T14:55:34.353Z,2.88
2022-12-31T14:58:26.999Z,2.78
2022-12-31T15:00:53.171Z,3.08
2022-12-31T15:03:19.939Z,3.33
2022-12-31T15:05:54.410Z,3.97
2022-12-31T15:08:56.385Z,3.75
2022-12-31T15:11:22.720Z,3.38
2022-12-31T15:14:07.294Z,3.85
2022-12-31T15:16:53.963Z,3.25
2022-12-31T15:19:20.334Z,2.90
2022-12-31T15:22:13.519Z,3.10
2022-12-31T15:24:44.185Z,3.60
2022-12-31T15:27:23.291Z,3.97
2022-12-31T15:29:49.719Z,3.70
2022-12-31T15:32:18.543Z,3.88
2022-12-31T15:34:44.859Z,4.22
2022-12-31T15:37:31.418Z,4.13
2022-12-31T15:40:17.836Z,4.55
2022-12-31T15:42:50.525Z,4.25
2022-12-31T15:45:24.388Z,4.07
2022-12-31T15:47:54.788Z,3.70
2022-12-31T15:50:22.280Z,4.55
2022-12-31T15:52:56.112Z,3.15
2022-12-31T15:55:41.516Z,3.30
2022-12-31T15:58:11.754Z,3.75
2022-12-31T16:01:01.484Z,3.70
2022-12-31T16:03:29.032Z,3.55
2022-12-31T16:05:59.358Z,3.75
2022-12-31T16:08:26.782Z,3.60
2022-12-31T16:10:54.480Z,4.03
2022-12-31T16:13:22.838Z,4.22
2022-12-31T16:15:56.076Z,4.10
2022-12-31T16:18:23.418Z,4.00
2022-12-31T16:20:51.626Z,3.88
2022-12-31T16:23:22.927Z,4.38
2022-12-31T16:25:51.108Z,4.05
2022-12-31T16:28:22.157Z,3.70
2022-12-31T16:30:58.810Z,3.63
2022-12-31T16:33:25.656Z,4.57
2022-12-31T16:35:55.839Z,5.03
2022-12-31T16:38:23.117Z,5.78
2022-12-31T16:41:06.143Z,10.00
2022-12-31T16:43:39.394Z,3.90
2022-12-31T16:46:08.580Z,3.97
2022-12-31T16:48:35.015Z,3.80
2022-12-31T16:51:02.676Z,4.03
2022-12-31T16:53:32.486Z,4.88
2022-12-31T16:56:06.629Z,4.10
2022-12-31T16:58:34.701Z,4.28
2022-12-31T17:01:09.174Z,3.78
2022-12-31T17:03:38.324Z,4.15
2022-12-31T17:06:07.531Z,6.82
2022-12-31T17:08:41.854Z,6.72
2022-12-31T17:11:23.178Z,4.75
2022-12-31T17:13:54.359Z,4.20
2022-12-31T17:16:20.901Z,6.15
2022-12-31T17:18:47.836Z,5.55
2022-12-31T17:21:14.436Z,6.53
2022-12-31T17:23:41.269Z,5.93
2022-12-31T17:26:07.600Z,5.18
2022-12-31T17:29:00.215Z,4.70
2022-12-31T17:31:26.635Z,4.00
2022-12-31T17:33:54.353Z,4.72
2022-12-31T17:36:22.459Z,4.75
2022-12-31T17:38:48.899Z,4.70
2022-12-31T17:41:17.059Z,6.13
2022-12-31T17:43:43.492Z,5.82
2022-12-31T17:46:13.975Z,6.03
2022-12-31T17:48:40.891Z,11.77
2022-12-31T17:51:07.316Z,11.70
2022-12-31T17:53:34.013Z,6.20
2022-12-31T17:56:01.951Z,3.72
2022-12-31T17:58:45.571Z,4.35
2022-12-31T18:01:13.726Z,5.15
2022-12-31T18:03:40.241Z,5.07
2022-12-31T18:06:13.037Z,4.45
2022-12-31T18:08:42.789Z,3.92
2022-12-31T18:11:15.005Z,4.93
2022-12-31T18:13:41.348Z,5.25
2022-12-31T18:16:07.960Z,5.75
2022-12-31T18:18:37.247Z,4.75
2022-12-31T18:21:05.174Z,4.60
2022-12-31T18:23:37.187Z,4.40
2022-12-31T18:26:03.754Z,4.38
2022-12-31T18:28:30.094Z,5.78
2022-12-31T18:30:56.478Z,6.47
2022-12-31T18:33:24.981Z,5.20
2022-12-31T18:36:09.183Z,6.30
2022-12-31T18:38:36.449Z,5.68
2022-12-31T18:41:02.786Z,5.75
2022-12-31T18:43:29.184Z,5.07
2022-12-31T18:45:55.688Z,4.07
2022-12-31T18:48:22.148Z,4.65
2022-12-31T18:50:48.616Z,5.53
2022-12-31T18:53:19.736Z,4.70
2022-12-31T18:55:56.559Z,4.47
2022-12-31T18:58:23.459Z,5.28
2022-12-31T19:00:50.630Z,5.45
2022-12-31T19:03:18.379Z,5.30
2022-12-31T19:05:49.016Z,3.88
2022-12-31T19:08:16.111Z,4.05
2022-12-31T19:10:42.459Z,4.13
2022-12-31T19:13:12.395Z,3.90
2022-12-31T19:15:42.725Z,3.42
2022-12-31T19:18:09.666Z,4.30
2022-12-31T19:20:36.047Z,4.45
2022-12-31T19:23:02.475Z,4.53
2022-12-31T19:25:33.714Z,5.30
2022-12-31T19:28:00.977Z,4.78
2022-12-31T19:30:29.096Z,4.38
2022-12-31T19:32:55.446Z,4.38
2022-12-31T19:35:22.047Z,3.72
2022-12-31T19:37:49.461Z,4.60
2022-12-31T19:40:33.641Z,3.70
2022-12-31T19:42:59.983Z,4.38
2022-12-31T19:45:27.720Z,5.60
2022-12-31T19:47:54.958Z,4.55
2022-12-31T19:50:23.225Z,4.68
2022-12-31T19:52:50.600Z,4.97
2022-12-31T19:55:19.288Z,5.32
2022-12-31T19:57:46.081Z,4.80
2022-12-31T20:00:14.263Z,5.03
2022-12-31T20:02:41.530Z,4.45
2022-12-31T20:05:09.200Z,4.95
2022-12-31T20:07:35.957Z,5.10
2022-12-31T20:10:03.603Z,5.18
2022-12-31T20:12:30.185Z,5.53
2022-12-31T20:14:56.485Z,4.90
2022-12-31T20:17:22.819Z,4.78
2022-12-31T20:19:49.356Z,5.32
2022-12-31T20:22:15.734Z,5.30
2022-12-31T20:24:42.099Z,5.30
2022-12-31T20:27:12.181Z,7.00
2022-12-31T20:29:41.607Z,5.72
2022-12-31T20:32:09.524Z,5.25
2022-12-31T20:34:35.897Z,7.20
2022-12-31T20:37:02.317Z,5.70
2022-12-31T20:39:28.791Z,5.25
2022-12-31T20:41:55.210Z,6.40
2022-12-31T20:44:21.674Z,4.63
2022-12-31T20:46:48.119Z,6.28
2022-12-31T20:49:14.499Z,7.72
2022-12-31T20:51:40.889Z,5.32
2022-12-31T20:54:08.197Z,4.75
2022-12-31T20:56:35.604Z,5.63
2022-12-31T20:59:02.530Z,5.22
2022-12-31T21:01:47.811Z,4.75
2022-12-31T21:04:15.877Z,5.22
2022-12-31T21:06:42.314Z,5.90
2022-12-31T21:09:08.789Z,5.57
2022-12-31T21:11:54.238Z,5.82
2022-12-31T21:14:20.580Z,5.40
2022-12-31T21:16:46.980Z,5.43
2022-12-31T21:19:13.434Z,5.72
2022-12-31T21:21:39.822Z,5.82
2022-12-31T21:24:06.396Z,6.53
2022-12-31T21:26:32.862Z,5.43
2022-12-31T21:28:59.282Z,5.88
2022-12-31T21:31:25.905Z,5.30
2022-12-31T21:33:52.380Z,8.05
2022-12-31T21:36:18.928Z,6.32
2022-12-31T21:38:45.417Z,6.18
2022-12-31T21:41:34.073Z,5.80
2022-12-31T21:44:01.972Z,6.53
2022-12-31T21:46:28.728Z,6.60
2022-12-31T21:48:56.095Z,6.40
2022-12-31T21:51:22.729Z,5.28
2022-12-31T21:53:49.051Z,6.18
2022-12-31T21:56:18.675Z,5.82
2022-12-31T21:58:46.159Z,5.18
2022-12-31T22:01:35.323Z,5.43
2022-12-31T22:04:01.735Z,7.05
2022-12-31T22:06:28.121Z,5.43
2022-12-31T22:08:55.279Z,4.97
2022-12-31T22:11:23.126Z,4.78
2022-12-31T22:13:50.039Z,6.03
2022-12-31T22:16:17.218Z,5.13
2022-12-31T22:18:44.040Z,5.20
2022-12-31T22:21:18.328Z,5.68
2022-12-31T22:23:47.968Z,4.47
2022-12-31T22:26:15.812Z,5.28
2022-12-31T22:28:42.885Z,5.60
2022-12-31T22:31:12.362Z,5.80
2022-12-31T22:33:38.710Z,9.20
2022-12-31T22:36:06.562Z,7.82
2022-12-31T22:38:33.255Z,9.23
2022-12-31T22:41:02.668Z,6.55
2022-12-31T22:43:30.493Z,6.15
2022-12-31T22:45:56.866Z,10.00
2022-12-31T22:48:23.313Z,5.70
2022-12-31T22:50:58.829Z,5.50
2022-12-31T22:53:25.244Z,11.88
2022-12-31T22:55:53.255Z,14.95
2022-12-31T22:58:19.815Z,7.55
2022-12-31T23:00:46.833Z,10.20
2022-12-31T23:03:13.330Z,16.65
2022-12-31T23:05:39.812Z,19.45
2022-12-31T23:08:17.027Z,41.92
2022-12-31T23:11:05.281Z,32.97
2022-12-31T23:14:01.132Z,37.17
2022-12-31T23:16:47.622Z,32.90
2022-12-31T23:19:33.558Z,28.65
2022-12-31T23:22:20.122Z,60.47
2022-12-31T23:24:46.440Z,25.67
2022-12-31T23:27:12.853Z,24.48
2022-12-31T23:29:46.178Z,30.90
2022-12-31T23:32:14.330Z,33.50
2022-12-31T23:34:40.757Z,40.42
2022-12-31T23:37:07.077Z,14.23
2022-12-31T23:39:33.496Z,16.02
2022-12-31T23:42:00.138Z,21.73
2022-12-31T23:44:27.149Z,16.73
2022-12-31T23:46:53.722Z,15.40
2022-12-31T23:49:20.158Z,14.60
2022-12-31T23:51:46.747Z,15.75
2022-12-31T23:54:14.698Z,12.00
2022-12-31T23:56:41.235Z,13.65
2022-12-31T23:59:07.679Z,14.73
